Flight Track Log - Related Links

Times and Time Zones

All times are in EDT time to prevent confusion due to time zone crossing. See the EJA643 flight status page for this flight to view local times or setup timezone preferences in your user account.

Time Position Orientation Groundspeed Altitude Reporting Facility
EDT Latitude Longitude Course Direction KTS MPH feet Rate Location/Type
Sun 04:39:15 PM 40.4640 -80.2368 104° East  Level FlightAware Approximate
Sun 04:39:59 PM 40.4542 -80.1858 183° South 221 254 3,400  Level FAA TRACON SMA TRACON (SMA)
Sun 04:40:38 PM 40.4097 -80.1889 182° South 258 297 4,600 1,215 Climbing FAA TRACON SMA TRACON (SMA)
Sun 04:41:18 PM 40.3592 -80.1917 183° South 271 312 5,000 667 Climbing FAA TRACON SMA TRACON (SMA)
Sun 04:41:59 PM 40.3056 -80.1953 183° South 276 318 5,500 1,852 Climbing FAA TRACON SMA TRACON (SMA)
Sun 04:42:39 PM 40.2572 -80.1986 184° South 271 312 7,500 3,342 Climbing FAA TRACON SMA TRACON (SMA)
Sun 04:43:18 PM 40.2044 -80.2031 183° South 278 320 9,900 3,418 Climbing FAA TRACON SMA TRACON (SMA)
Sun 04:43:58 PM 40.1461 -80.2075 182° South 299 344 12,000 3,185 Climbing FAA TRACON SMA TRACON (SMA)
Sun 04:44:39 PM 40.0911 -80.2103 184° South 309 356 14,200 3,407 Climbing FAA TRACON SMA TRACON (SMA)
Sun 04:45:19 PM 40.0333 -80.2153 183° South 308 354 16,600 3,418 Climbing FAA TRACON SMA TRACON (SMA)
Sun 04:45:58 PM 39.9797 -80.2194 183° South 306 352 18,700 2,430 Climbing FAA TRACON SMA TRACON (SMA)
Sun 04:46:38 PM 39.9406 -80.2219 182° South 306 352 19,800 2,308 Climbing FAA TRACON SMA TRACON (SMA)
Sun 04:47:29 PM 39.8519 -80.2261 183° South 433 498 22,200 2,704 Climbing Cleveland Center
Sun 04:49:00 PM 39.7139 -80.2369 183° South 315 362 26,200 2,424 Climbing Washington Center
Sun 04:50:00 PM 39.6303 -80.2422 183° South 310 357 28,300 1,983 Climbing Washington Center
Sun 04:51:01 PM 39.5467 -80.2475 183° South 310 357 30,200 1,721 Climbing Washington Center
Sun 04:52:02 PM 39.4650 -80.2531 183° South 310 357 31,800 992 Climbing Washington Center
Sun 04:53:02 PM 39.3836 -80.2586 183° South 305 351 32,200 610 Climbing Washington Center
Sun 04:54:00 PM 39.2958 -80.2636 189° South 310 357 33,000 1,109 Climbing Washington Center
Sun 04:55:01 PM 39.2139 -80.2797 192° South 310 357 34,400 1,587 Climbing Washington Center
Sun 04:56:01 PM 39.1358 -80.3017 192° South 305 351 36,200 1,450 Climbing Washington Center
Sun 04:57:01 PM 39.0581 -80.3233 194° South 297 342 37,300 992 Climbing Washington Center
Sun 04:58:02 PM 38.9819 -80.3478 191° South 292 336 38,200 694 Climbing Washington Center
Sun 04:59:02 PM 38.8978 -80.3689 185° South 298 343 38,700 508 Climbing Washington Center
Sun 05:00:00 PM 38.8078 -80.3792 193° South 324 373 39,200 610 Climbing Washington Center
Sun 05:01:00 PM 38.7253 -80.4031 186° South 333 383 39,900 397 Climbing Washington Center
Sun 05:02:01 PM 38.6311 -80.4156 184° South 339 390 40,000 50 Climbing Washington Center
Sun 05:03:01 PM 38.5325 -80.4250 185° South 351 404 40,000  Level Washington Center
Sun 05:04:02 PM 38.4175 -80.4386 187° South 368 423 40,000  Level Washington Center
Sun 05:05:02 PM 38.3144 -80.4558 185° South 373 429 40,000  Level Washington Center
Sun 05:06:03 PM 38.2078 -80.4672 186° South 373 429 40,000  Level Washington Center
Sun 05:07:01 PM 38.1111 -80.4794 186° South 384 442 40,000  Level Washington Center
Sun 05:08:02 PM 38.0083 -80.4939 185° South 389 448 40,000  Level Washington Center
Sun 05:09:02 PM 37.9058 -80.5056 186° South 389 448 40,000  Level Washington Center
Sun 05:10:00 PM 37.8050 -80.5200 185° South 383 441 40,000  Level Washington Center
Sun 05:12:03 PM 37.5847 -80.5458 186° South 362 417 40,000  Level Atlanta Center
Sun 05:13:03 PM 37.4933 -80.5578 185° South 368 423 40,000  Level Atlanta Center
Sun 05:14:03 PM 37.3875 -80.5703 186° South 378 435 40,000  Level Atlanta Center
Sun 05:15:03 PM 37.2794 -80.5856 186° South 389 448 40,000  Level Atlanta Center
Sun 05:16:03 PM 37.1717 -80.6008 185° South 389 448 40,000  Level Atlanta Center
Sun 05:17:03 PM 37.0511 -80.6139 185° South 389 448 40,000  Level Atlanta Center
Sun 05:18:03 PM 36.9408 -80.6264 186° South 395 455 40,000  Level Atlanta Center
Sun 05:19:03 PM 36.8308 -80.6414 184° South 395 455 40,000  Level Atlanta Center
Sun 05:20:03 PM 36.7331 -80.6508 185° South 405 466 40,000  Level Atlanta Center
Sun 05:21:03 PM 36.6228 -80.6633 187° South 405 466 40,000  Level Atlanta Center
Sun 05:22:03 PM 36.5150 -80.6808 185° South 405 466 40,000  Level Atlanta Center
Sun 05:23:03 PM 36.4089 -80.6928 186° South 400 460 40,000  Level Atlanta Center
Sun 05:24:03 PM 36.2967 -80.7078 185° South 395 455 40,000  Level Atlanta Center
Sun 05:25:03 PM 36.1906 -80.7200 187° South 395 455 40,000  Level Atlanta Center
Sun 05:26:03 PM 36.0744 -80.7375 184° South 389 448 40,000  Level Atlanta Center
Sun 05:27:03 PM 35.9661 -80.7472 186° South 389 448 40,000  Level Atlanta Center
Sun 05:28:03 PM 35.8561 -80.7617 185° South 394 453 40,000  Level Atlanta Center
Sun 05:29:03 PM 35.7478 -80.7739 185° South 394 453 40,000  Level Atlanta Center
Sun 05:30:03 PM 35.6375 -80.7858 186° South 394 453 40,000  Level Atlanta Center
Sun 05:31:03 PM 35.5275 -80.8006 185° South 399 459 40,000  Level Atlanta Center
Sun 05:32:03 PM 35.4275 -80.8119 186° South 405 466 40,000  Level Atlanta Center
Sun 05:33:03 PM 35.3175 -80.8267 185° South 405 466 40,000  Level Atlanta Center
Sun 05:34:03 PM 35.2072 -80.8383 187° South 405 466 40,000  Level Atlanta Center
Sun 05:36:22 PM 34.9406 -80.8769 184° South 403 464 40,000  Level Jacksonville Center
Sun 05:37:22 PM 34.8322 -80.8869 188° South 403 464 40,000  Level Jacksonville Center
Sun 05:38:22 PM 34.7242 -80.9047 186° South 398 458 40,000  Level Jacksonville Center
Sun 05:39:22 PM 34.6222 -80.9172 184° South 382 440 40,000  Level Jacksonville Center
Sun 05:40:22 PM 34.5200 -80.9269 180° South 376 433 40,000  Level Jacksonville Center
Sun 05:41:22 PM 34.4158 -80.9269 183° South 376 433 40,000  Level Jacksonville Center
Sun 05:42:22 PM 34.3072 -80.9342 182° South 383 441 40,000  Level Jacksonville Center
Sun 05:43:22 PM 34.2031 -80.9392 180° South 383 441 40,000  Level Jacksonville Center
Sun 05:44:22 PM 34.0967 -80.9392 183° South 383 441 40,000  Level Jacksonville Center
Sun 05:45:22 PM 33.9903 -80.9464 181° South 383 441 40,000  Level Jacksonville Center
Sun 05:46:22 PM 33.8842 -80.9489 183° South 383 441 40,000  Level Jacksonville Center
Sun 05:47:22 PM 33.7736 -80.9561 180° South 383 441 40,000  Level Jacksonville Center
Sun 05:48:22 PM 33.6650 -80.9561 182° South 383 441 40,000  Level Jacksonville Center
Sun 05:49:22 PM 33.5650 -80.9608 182° South 388 447 40,000  Level Jacksonville Center
Sun 05:50:22 PM 33.4544 -80.9656 182° South 393 452 40,000  Level Jacksonville Center
Sun 05:51:22 PM 33.3439 -80.9706 182° South 398 458 40,000  Level Jacksonville Center
Sun 05:52:22 PM 33.2353 -80.9753 182° South 398 458 40,000  Level Jacksonville Center
Sun 05:53:22 PM 33.1228 -80.9803 181° South 403 464 40,000  Level Jacksonville Center
Sun 05:54:22 PM 33.0122 -80.9828 182° South 403 464 40,000  Level Jacksonville Center
Sun 05:55:22 PM 32.9017 -80.9875 182° South 403 464 40,000  Level Jacksonville Center
Sun 05:56:22 PM 32.7869 -80.9925 181° South 408 470 40,000  Level Jacksonville Center
Sun 05:57:22 PM 32.6742 -80.9947 182° South 408 470 40,000  Level Jacksonville Center
Sun 05:58:22 PM 32.5636 -80.9994 182° South 408 470 40,000  Level Jacksonville Center
Sun 05:59:22 PM 32.4489 -81.0044 181° South 402 463 40,000  Level Jacksonville Center
Sun 06:00:22 PM 32.3403 -81.0067 182° South 402 463 40,000  Level Jacksonville Center
Sun 06:01:22 PM 32.2153 -81.0117 181° South 402 463 40,000  Level Jacksonville Center
Sun 06:02:22 PM 32.0983 -81.0139 182° South 408 470 40,000  Level Jacksonville Center
Sun 06:03:22 PM 31.9961 -81.0186 182° South 414 476 40,000  Level Jacksonville Center
Sun 06:04:22 PM 31.8814 -81.0233 182° South 414 476 40,000  Level Jacksonville Center
Sun 06:05:22 PM 31.7686 -81.0281 181° South 414 476 40,000  Level Jacksonville Center
Sun 06:06:22 PM 31.6558 -81.0303 182° South 403 464 40,000  Level Jacksonville Center
Sun 06:07:22 PM 31.5328 -81.0353 182° South 403 464 40,000  Level Jacksonville Center
Sun 06:08:22 PM 31.4181 -81.0400 181° South 408 470 40,000  Level Jacksonville Center
Sun 06:09:22 PM 31.3117 -81.0419 182° South 419 482 40,000  Level Jacksonville Center
Sun 06:10:22 PM 31.1969 -81.0467 180° South 419 482 40,000  Level Jacksonville Center
Sun 06:11:22 PM 31.0819 -81.0467 183° South 419 482 40,000 -400 Level Jacksonville Center
Sun 06:12:22 PM 30.9694 -81.0536 182° South 419 482 39,200 -1,250 Descending Jacksonville Center
Sun 06:13:22 PM 30.8567 -81.0583 182° South 413 475 37,500 -1,900 Descending Jacksonville Center
Sun 06:14:22 PM 30.7483 -81.0628 182° South 406 467 35,400 -1,750 Descending Jacksonville Center
Sun 06:15:22 PM 30.6397 -81.0672 182° South 394 453 34,000 -700 Descending Jacksonville Center
Sun 06:16:22 PM 30.5250 -81.0719 181° South 406 467 34,000  Level Jacksonville Center
Sun 06:17:22 PM 30.4103 -81.0742 183° South 412 474 34,000 -600 Level Jacksonville Center
Sun 06:18:22 PM 30.2953 -81.0811 181° South 417 480 32,800 -1,400 Descending Jacksonville Center
Sun 06:19:22 PM 30.1786 -81.0833 182° South 422 486 31,200 -1,650 Descending Jacksonville Center
Sun 06:20:22 PM 30.0639 -81.0878 183° South 422 486 29,500 -1,700 Descending Jacksonville Center
Sun 06:21:22 PM 29.9469 -81.0947 181° South 422 486 27,800 -1,650 Descending Jacksonville Center
Sun 06:22:22 PM 29.8258 -81.0969 183° South 422 486 26,200 -1,650 Descending Jacksonville Center
Sun 06:23:22 PM 29.7028 -81.1042 181° South 434 499 24,500 -1,950 Descending Jacksonville Center
Sun 06:24:22 PM 29.5839 -81.1064 181° South 440 506 22,300 -2,300 Descending Jacksonville Center
Sun 06:25:22 PM 29.4692 -81.1083 182° South 430 495 19,900 -2,600 Descending Jacksonville Center
Sun 06:26:22 PM 29.3564 -81.1128 179° South 416 479 17,100 -2,350 Descending Jacksonville Center
Sun 06:27:22 PM 29.2500 -81.1100 175° South 396 456 15,200 -1,950 Descending Jacksonville Center
Sun 06:28:22 PM 29.1433 -81.1000 175° South 396 456 13,200 -1,600 Descending Jacksonville Center
Sun 06:29:22 PM 29.0431 -81.0900 174° South 384 442 12,000 -800 Descending Jacksonville Center
Sun 06:30:22 PM 28.9428 -81.0775 172° South 373 429 11,600 -900 Descending Jacksonville Center
Sun 06:31:22 PM 28.8547 -81.0625 187° South 351 404 10,200 -1,300 Descending Jacksonville Center
Sun 06:32:22 PM 28.7736 -81.0736 228° Southwest 329 379 9,000 -600 Descending Jacksonville Center
Sun 06:33:22 PM 28.7222 -81.1383 194° South 273 314 9,000  Level Jacksonville Center
Sun 06:34:22 PM 28.6453 -81.1608 171° South 278 320 9,000  Level Jacksonville Center
Sun 06:34:56 PM 28.5833 -81.1500 168° South 295 339 9,000 64 Level Orlando TRACON
Sun 06:35:56 PM 28.5167 -81.1333 192° South 257 296 9,100 -261 Climbing Orlando TRACON
Sun 06:36:51 PM 28.4500 -81.1500 210° Southwest 236 272 8,500 -1,617 Descending Orlando TRACON
Sun 06:37:51 PM 28.4000 -81.1833 180° South 238 274 6,000 -2,100 Descending Orlando TRACON
Sun 06:38:51 PM 28.3333 -81.1833 221° Southwest 242 278 4,300 -1,632 Descending Orlando TRACON
Sun 06:39:45 PM 28.3000 -81.2167 254° West 211 243 2,900 -1,150 Descending Orlando TRACON
Sun 06:40:51 PM 28.2833 -81.2833 319° Northwest 204 235 2,000 -450 Descending Orlando TRACON
Sun 06:41:45 PM 28.3167 -81.3167 360° North 171 197 2,000 -316 Level Orlando TRACON
Sun 06:42:45 PM 28.3500 -81.3167 360° North 130 150 1,400 -667 Descending Orlando TRACON
Sun 06:43:51 PM 28.4000 -81.3167 41° Northeast 127 146 600 -727 Descending Orlando TRACON
Sun 06:51:15 PM 28.4167 -81.3000 328° Northwest  Level FlightAware Approximate
Sun 06:52:15 PM 28.5027 -81.3608 148° Southeast  Level Estimated
Sun 06:53:15 PM 28.4167 -81.3000 328° Northwest  Level FlightAware Approximate
Sun 06:54:15 PM 28.5027 -81.3608 148° Southeast  Level Estimated
Sun 06:55:15 PM 28.4167 -81.3000 328° Northwest  Level FlightAware Approximate
Sun 06:56:15 PM 28.5027 -81.3608 148° Southeast  Level Estimated
Sun 06:57:15 PM 28.4167 -81.3000 328° Northwest  Level FlightAware Approximate
Sun 06:58:15 PM 28.5027 -81.3608 148° Southeast  Level Estimated
Sun 06:59:15 PM 28.4167 -81.3000 328° Northwest  Level FlightAware Approximate
Sun 07:00:15 PM 28.5027 -81.3608 328° Northwest  Level Estimated

Login

Don't have an account? Register now (free) for customized features, flight alerts, and more!